createdAt,value
2022-08-12T00:00:37.287Z,1.77
2022-08-12T00:03:41.796Z,1.40
2022-08-12T00:06:48.642Z,1.35
2022-08-12T00:09:53.335Z,1.40
2022-08-12T00:12:57.882Z,1.83
2022-08-12T00:16:03.638Z,1.65
2022-08-12T00:19:08.466Z,1.83
2022-08-12T00:22:12.942Z,1.40
2022-08-12T00:25:55.729Z,1.90
2022-08-12T00:28:46.818Z,1.60
2022-08-12T00:31:51.533Z,1.88
2022-08-12T00:34:55.842Z,1.80
2022-08-12T00:38:00.453Z,1.80
2022-08-12T00:41:05.372Z,2.03
2022-08-12T00:43:56.081Z,2.35
2022-08-12T00:46:53.741Z,2.13
2022-08-12T00:49:41.098Z,2.00
2022-08-12T00:52:26.712Z,1.92
2022-08-12T00:55:13.378Z,1.98
2022-08-12T00:57:59.543Z,2.05
2022-08-12T01:00:45.569Z,2.30
2022-08-12T01:03:55.741Z,2.08
2022-08-12T01:07:03.282Z,1.80
2022-08-12T01:10:08.285Z,2.05
2022-08-12T01:12:54.312Z,2.20
2022-08-12T01:15:58.221Z,1.88
2022-08-12T01:18:45.118Z,1.80
2022-08-12T01:22:02.406Z,1.92
2022-08-12T01:25:05.426Z,2.30
2022-08-12T01:27:53.132Z,2.08
2022-08-12T01:30:42.474Z,1.77
2022-08-12T01:33:34.949Z,1.90
2022-08-12T01:36:25.834Z,2.28
2022-08-12T01:39:15.869Z,2.03
2022-08-12T01:42:08.939Z,2.08
2022-08-12T01:44:55.644Z,1.83
2022-08-12T01:48:13.702Z,1.88
2022-08-12T01:52:04.502Z,1.73
2022-08-12T01:54:20.635Z,1.95
2022-08-12T01:57:14.890Z,1.90
2022-08-12T02:00:06.556Z,1.65
2022-08-12T02:02:57.937Z,2.25
2022-08-12T02:06:17.672Z,1.83
2022-08-12T02:09:23.553Z,1.50
2022-08-12T02:12:09.399Z,1.60
2022-08-12T02:15:04.714Z,1.90
2022-08-12T02:18:26.114Z,1.77
2022-08-12T02:21:41.994Z,1.90
2022-08-12T02:24:32.190Z,1.55
2022-08-12T02:27:20.400Z,1.58
2022-08-12T02:30:09.463Z,1.50
2022-08-12T02:32:56.506Z,1.67
2022-08-12T02:35:42.569Z,1.60
2022-08-12T02:38:31.112Z,1.90
2022-08-12T02:41:18.772Z,2.00
2022-08-12T02:44:08.853Z,2.03
2022-08-12T02:47:01.137Z,1.88
2022-08-12T02:49:55.769Z,1.70
2022-08-12T02:52:43.735Z,2.15
2022-08-12T02:55:34.845Z,2.03
2022-08-12T02:58:20.897Z,2.22
2022-08-12T03:01:24.989Z,2.10
2022-08-12T03:04:20.613Z,2.00
2022-08-12T03:07:32.582Z,1.92
2022-08-12T03:13:26.509Z,2.25
2022-08-12T03:16:12.665Z,2.00
2022-08-12T03:18:59.034Z,1.90
2022-08-12T03:21:55.334Z,2.13
2022-08-12T03:24:52.284Z,2.38
2022-08-12T03:27:48.026Z,1.90
2022-08-12T03:30:34.081Z,2.03
2022-08-12T03:33:21.537Z,2.10
2022-08-12T03:36:08.949Z,2.30
2022-08-12T03:39:15.474Z,2.50
2022-08-12T03:42:38.754Z,2.53
2022-08-12T03:45:52.625Z,3.22
2022-08-12T03:49:00.208Z,3.45
2022-08-12T03:52:05.409Z,3.20
2022-08-12T03:55:10.208Z,3.72
2022-08-12T03:58:14.694Z,3.70
2022-08-12T04:01:00.764Z,3.97
2022-08-12T04:03:53.260Z,3.92
2022-08-12T04:06:47.197Z,4.05
2022-08-12T04:09:33.335Z,4.40
2022-08-12T04:12:38.033Z,4.18
2022-08-12T04:15:28.916Z,4.15
2022-08-12T04:18:18.425Z,4.20
2022-08-12T04:21:10.000Z,3.83
2022-08-12T04:23:56.437Z,3.92
2022-08-12T04:26:42.096Z,4.43
2022-08-12T04:30:16.476Z,3.88
2022-08-12T04:32:35.271Z,3.67
2022-08-12T04:35:21.296Z,3.38
2022-08-12T04:38:07.896Z,3.45
2022-08-12T04:40:54.389Z,4.10
2022-08-12T04:43:53.926Z,4.10
2022-08-12T04:46:46.477Z,3.65
2022-08-12T04:49:34.845Z,3.60
2022-08-12T04:52:21.596Z,3.33
2022-08-12T04:55:10.290Z,3.75
2022-08-12T04:57:56.453Z,3.85
2022-08-12T05:00:41.873Z,3.90
2022-08-12T05:03:27.998Z,3.95
2022-08-12T05:06:20.794Z,3.65
2022-08-12T05:09:13.804Z,4.65
2022-08-12T05:11:59.293Z,4.30
2022-08-12T05:14:44.843Z,4.50
2022-08-12T05:17:30.912Z,3.95
2022-08-12T05:20:19.835Z,3.90
2022-08-12T05:23:12.474Z,4.90
2022-08-12T05:28:46.220Z,4.43
2022-08-12T05:31:42.509Z,4.72
2022-08-12T05:34:34.512Z,4.95
2022-08-12T05:37:23.342Z,4.90
2022-08-12T05:40:11.527Z,4.93
2022-08-12T05:42:57.298Z,4.82
2022-08-12T05:45:44.938Z,4.00
2022-08-12T05:48:31.340Z,4.45
2022-08-12T05:51:17.624Z,4.43
2022-08-12T05:54:03.769Z,4.45
2022-08-12T05:56:49.179Z,4.25
2022-08-12T05:59:35.027Z,4.50
2022-08-12T06:02:20.924Z,3.95
2022-08-12T06:05:07.456Z,4.47
2022-08-12T06:08:02.137Z,4.18
2022-08-12T06:10:51.887Z,4.10
2022-08-12T06:13:52.911Z,4.15
2022-08-12T06:16:40.778Z,3.42
2022-08-12T06:20:25.859Z,3.75
2022-08-12T06:22:35.095Z,3.42
2022-08-12T06:25:21.990Z,3.00
2022-08-12T06:28:17.431Z,3.10
2022-08-12T06:35:26.731Z,3.08
2022-08-12T06:37:18.936Z,2.85
2022-08-12T06:40:06.795Z,2.78
2022-08-12T06:42:52.880Z,2.42
2022-08-12T06:45:46.809Z,3.00
2022-08-12T06:48:33.378Z,2.92
2022-08-12T06:51:20.747Z,2.63
2022-08-12T06:54:07.312Z,2.78
2022-08-12T06:57:04.217Z,3.00
2022-08-12T06:59:51.858Z,2.60
2022-08-12T07:02:37.551Z,2.75
2022-08-12T07:05:27.097Z,2.60
2022-08-12T07:08:13.962Z,2.50
2022-08-12T07:11:05.022Z,2.75
2022-08-12T07:14:11.621Z,2.50
2022-08-12T07:17:02.271Z,1.95
2022-08-12T07:19:50.019Z,2.08
2022-08-12T07:22:36.623Z,2.20
2022-08-12T07:25:40.406Z,2.30
2022-08-12T07:28:30.934Z,2.15
2022-08-12T07:31:18.426Z,2.00
2022-08-12T07:34:05.157Z,2.20
2022-08-12T07:36:51.240Z,2.20
2022-08-12T07:39:36.910Z,1.98
2022-08-12T07:42:35.825Z,2.15
2022-08-12T07:45:22.056Z,2.05
2022-08-12T07:48:07.870Z,2.20
2022-08-12T07:50:53.987Z,2.50
2022-08-12T07:53:54.831Z,2.45
2022-08-12T07:56:46.240Z,2.95
2022-08-12T07:59:35.835Z,2.30
2022-08-12T08:02:26.461Z,2.70
2022-08-12T08:05:13.115Z,2.28
2022-08-12T08:08:02.434Z,2.83
2022-08-12T08:10:51.286Z,2.85
2022-08-12T08:13:38.956Z,2.65
2022-08-12T08:16:25.356Z,2.53
2022-08-12T08:19:23.995Z,2.45
2022-08-12T08:22:10.576Z,2.25
2022-08-12T08:24:57.746Z,2.75
2022-08-12T08:27:47.564Z,2.40
2022-08-12T08:30:34.286Z,2.35
2022-08-12T08:34:04.249Z,2.25
2022-08-12T08:36:25.721Z,1.83
2022-08-12T08:39:21.589Z,2.72
2022-08-12T08:42:26.895Z,2.35
2022-08-12T08:45:15.911Z,2.60
2022-08-12T08:48:02.373Z,2.60
2022-08-12T08:51:04.541Z,2.30
2022-08-12T08:53:52.721Z,1.80
2022-08-12T08:56:50.175Z,2.35
2022-08-12T08:59:36.241Z,2.20
2022-08-12T09:02:22.086Z,1.50
2022-08-12T09:05:14.813Z,2.35
2022-08-12T09:08:13.256Z,1.65
2022-08-12T09:12:06.451Z,1.60
2022-08-12T09:14:29.249Z,1.60
2022-08-12T09:17:21.020Z,1.83
2022-08-12T09:20:09.390Z,1.70
2022-08-12T09:22:57.647Z,1.80
2022-08-12T09:25:48.433Z,1.90
2022-08-12T09:28:34.451Z,1.92
2022-08-12T09:32:07.820Z,1.90
2022-08-12T09:34:33.380Z,1.80
2022-08-12T09:37:22.606Z,1.58
2022-08-12T09:40:57.103Z,1.85
2022-08-12T09:43:35.956Z,1.55
2022-08-12T09:46:25.610Z,1.98
2022-08-12T09:49:16.397Z,1.73
2022-08-12T09:52:02.698Z,1.45
2022-08-12T09:54:50.213Z,1.40
2022-08-12T09:58:46.633Z,1.13
2022-08-12T10:00:52.278Z,1.60
2022-08-12T10:04:02.881Z,1.52
2022-08-12T10:06:55.386Z,1.50
2022-08-12T10:09:57.165Z,1.60
2022-08-12T10:13:07.145Z,1.50
2022-08-12T10:16:02.224Z,1.23
2022-08-12T10:18:57.794Z,1.52
2022-08-12T10:21:44.988Z,1.30
2022-08-12T10:24:30.815Z,1.33
2022-08-12T10:27:39.482Z,1.30
2022-08-12T10:30:44.147Z,1.67
2022-08-12T10:33:43.836Z,1.38
2022-08-12T10:36:44.447Z,1.50
2022-08-12T10:40:01.502Z,1.65
2022-08-12T10:43:00.345Z,1.38
2022-08-12T10:45:49.751Z,1.58
2022-08-12T10:48:35.599Z,1.50
2022-08-12T10:52:04.803Z,1.10
2022-08-12T10:54:27.428Z,1.58
2022-08-12T10:57:18.182Z,1.40
2022-08-12T11:00:34.600Z,1.88
2022-08-12T11:04:35.919Z,1.45
2022-08-12T11:07:08.852Z,1.58
2022-08-12T11:09:42.001Z,1.58
2022-08-12T11:12:59.740Z,1.50
2022-08-12T11:16:04.267Z,1.75
2022-08-12T11:18:55.525Z,1.70
2022-08-12T11:21:58.480Z,1.73
2022-08-12T11:24:51.055Z,1.40
2022-08-12T11:27:37.410Z,1.60
2022-08-12T11:30:30.630Z,1.50
2022-08-12T11:33:52.659Z,1.63
2022-08-12T11:36:23.423Z,1.52
2022-08-12T11:39:12.730Z,1.65
2022-08-12T11:41:59.594Z,1.85
2022-08-12T11:44:45.506Z,1.60
2022-08-12T11:47:31.835Z,1.67
2022-08-12T11:50:19.399Z,1.52
2022-08-12T11:53:05.445Z,1.58
2022-08-12T11:56:11.310Z,1.70
2022-08-12T12:02:05.060Z,1.90
2022-08-12T12:04:52.683Z,1.70
2022-08-12T12:08:41.296Z,1.90
2022-08-12T12:10:50.426Z,1.60
2022-08-12T12:14:07.757Z,1.30
2022-08-12T12:16:48.133Z,1.80
2022-08-12T12:19:39.728Z,1.60
2022-08-12T12:22:31.550Z,1.40
2022-08-12T12:25:19.762Z,1.73
2022-08-12T12:28:06.459Z,2.20
2022-08-12T12:30:54.731Z,1.60
2022-08-12T12:33:57.366Z,1.70
2022-08-12T12:36:47.739Z,1.48
2022-08-12T12:39:55.010Z,1.30
2022-08-12T12:42:55.511Z,1.65
2022-08-12T12:45:46.745Z,2.17
2022-08-12T12:48:32.642Z,1.60
2022-08-12T12:51:49.482Z,1.55
2022-08-12T12:54:26.035Z,1.60
2022-08-12T12:57:14.817Z,1.55
2022-08-12T13:00:15.172Z,1.50
2022-08-12T13:03:01.296Z,1.60
2022-08-12T13:05:53.877Z,1.80
2022-08-12T13:08:40.300Z,1.70
2022-08-12T13:11:40.699Z,1.50
2022-08-12T13:14:29.621Z,1.60
2022-08-12T13:17:19.892Z,1.63
2022-08-12T13:20:06.321Z,2.00
2022-08-12T13:22:53.984Z,1.55
2022-08-12T13:25:43.487Z,1.60
2022-08-12T13:28:31.388Z,1.67
2022-08-12T13:31:17.159Z,1.63
2022-08-12T13:34:32.132Z,1.63
2022-08-12T13:37:11.488Z,1.98
2022-08-12T13:39:57.978Z,1.80
2022-08-12T13:42:46.125Z,1.52
2022-08-12T13:45:32.871Z,1.63
2022-08-12T13:48:19.872Z,1.52
2022-08-12T13:51:06.096Z,1.65
2022-08-12T13:53:57.644Z,1.88
2022-08-12T13:56:49.775Z,1.80
2022-08-12T13:59:48.301Z,1.73
2022-08-12T14:02:41.473Z,1.70
2022-08-12T14:05:37.982Z,1.80
2022-08-12T14:08:24.009Z,1.60
2022-08-12T14:11:12.362Z,1.52
2022-08-12T14:14:03.276Z,1.70
2022-08-12T14:17:00.616Z,1.80
2022-08-12T14:20:05.466Z,1.83
2022-08-12T14:22:57.517Z,1.60
2022-08-12T14:25:44.535Z,2.05
2022-08-12T14:28:32.395Z,1.50
2022-08-12T14:31:19.088Z,1.77
2022-08-12T14:34:07.176Z,1.67
2022-08-12T14:36:52.613Z,1.55
2022-08-12T14:39:39.211Z,1.50
2022-08-12T14:42:26.100Z,1.45
2022-08-12T14:45:12.661Z,1.55
2022-08-12T14:47:58.963Z,1.30
2022-08-12T14:51:09.723Z,1.50
2022-08-12T14:56:26.269Z,1.45
2022-08-12T14:57:19.391Z,1.45
2022-08-12T15:00:28.485Z,1.50
2022-08-12T15:03:15.266Z,1.42
2022-08-12T15:06:39.474Z,1.33
2022-08-12T15:09:13.521Z,1.63
2022-08-12T15:12:03.951Z,1.63
2022-08-12T15:14:50.427Z,1.77
2022-08-12T15:17:39.306Z,1.40
2022-08-12T15:20:32.704Z,1.50
2022-08-12T15:23:29.183Z,1.40
2022-08-12T15:26:21.232Z,1.40
2022-08-12T15:29:14.452Z,1.60
2022-08-12T15:32:07.667Z,1.50
2022-08-12T15:34:57.083Z,1.95
2022-08-12T15:38:11.129Z,1.40
2022-08-12T15:40:52.343Z,1.33
2022-08-12T15:44:15.836Z,1.42
2022-08-12T15:46:44.224Z,1.50
2022-08-12T15:49:54.610Z,1.90
2022-08-12T15:52:35.436Z,1.52
2022-08-12T15:55:24.414Z,1.30
2022-08-12T15:58:19.312Z,1.50
2022-08-12T16:01:13.837Z,1.38
2022-08-12T16:04:00.638Z,1.80
2022-08-12T16:10:04.981Z,1.75
2022-08-12T16:12:56.440Z,1.40
2022-08-12T16:15:50.919Z,1.70
2022-08-12T16:18:48.013Z,1.65
2022-08-12T16:21:51.094Z,1.70
2022-08-12T16:24:43.630Z,1.33
2022-08-12T16:27:31.590Z,1.17
2022-08-12T16:30:32.762Z,1.48
2022-08-12T16:33:19.619Z,1.50
2022-08-12T16:36:11.376Z,1.55
2022-08-12T16:39:01.585Z,1.30
2022-08-12T16:41:48.095Z,1.40
2022-08-12T16:44:36.217Z,1.35
2022-08-12T16:47:23.173Z,1.30
2022-08-12T16:50:16.180Z,1.40
2022-08-12T16:53:03.368Z,1.30
2022-08-12T16:55:52.048Z,1.83
2022-08-12T16:58:38.215Z,1.35
2022-08-12T17:01:23.976Z,1.20
2022-08-12T17:04:12.062Z,1.33
2022-08-12T17:06:58.063Z,1.10
2022-08-12T17:09:51.100Z,1.30
2022-08-12T17:12:38.291Z,1.15
2022-08-12T17:15:57.137Z,1.63
2022-08-12T17:18:42.742Z,1.23
2022-08-12T17:21:40.744Z,1.00
2022-08-12T17:24:43.803Z,1.05
2022-08-12T17:27:40.372Z,1.30
2022-08-12T17:30:27.608Z,1.30
2022-08-12T17:33:16.970Z,1.40
2022-08-12T17:36:05.812Z,1.02
2022-08-12T17:38:51.641Z,1.27
2022-08-12T17:41:56.615Z,1.60
2022-08-12T17:44:43.653Z,1.25
2022-08-12T17:47:35.506Z,1.50
2022-08-12T17:50:22.089Z,1.50
2022-08-12T17:53:18.094Z,1.35
2022-08-12T17:56:05.925Z,1.42
2022-08-12T17:58:58.368Z,1.27
2022-08-12T18:01:46.025Z,1.45
2022-08-12T18:04:35.858Z,2.47
2022-08-12T18:07:23.516Z,2.20
2022-08-12T18:10:12.790Z,2.00
2022-08-12T18:13:01.227Z,2.03
2022-08-12T18:16:05.561Z,2.40
2022-08-12T18:18:53.737Z,2.53
2022-08-12T18:22:01.166Z,2.75
2022-08-12T18:24:48.703Z,2.88
2022-08-12T18:27:44.121Z,2.50
2022-08-12T18:30:33.393Z,2.38
2022-08-12T18:33:19.811Z,2.90
2022-08-12T18:36:08.870Z,2.95
2022-08-12T18:39:00.018Z,3.08
2022-08-12T18:41:46.977Z,3.20
2022-08-12T18:44:33.578Z,2.92
2022-08-12T18:47:20.908Z,2.85
2022-08-12T18:50:10.874Z,2.50
2022-08-12T18:52:57.238Z,3.25
2022-08-12T18:55:59.330Z,3.10
2022-08-12T18:58:59.220Z,3.20
2022-08-12T19:02:20.789Z,2.72
2022-08-12T19:04:57.355Z,3.17
2022-08-12T19:07:59.966Z,3.58
2022-08-12T19:10:50.555Z,2.65
2022-08-12T19:13:55.581Z,3.00
2022-08-12T19:16:43.935Z,2.70
2022-08-12T19:19:38.870Z,3.00
2022-08-12T19:22:28.982Z,2.60
2022-08-12T19:25:23.595Z,2.80
2022-08-12T19:28:35.493Z,2.78
2022-08-12T19:31:56.927Z,2.65
2022-08-12T19:38:03.565Z,2.90
2022-08-12T19:40:54.939Z,2.67
2022-08-12T19:44:00.776Z,3.10
2022-08-12T19:46:52.756Z,3.10
2022-08-12T19:49:50.016Z,2.85
2022-08-12T19:52:36.519Z,3.20
2022-08-12T19:55:23.306Z,3.08
2022-08-12T19:58:11.847Z,2.80
2022-08-12T20:01:11.024Z,3.00
2022-08-12T20:04:00.055Z,2.97
2022-08-12T20:06:51.517Z,3.13
2022-08-12T20:09:42.561Z,2.80
2022-08-12T20:12:32.909Z,3.00
2022-08-12T20:15:22.027Z,3.47
2022-08-12T20:18:43.797Z,3.03
2022-08-12T20:21:17.455Z,2.92
2022-08-12T20:24:11.958Z,2.80
2022-08-12T20:27:02.786Z,3.00
2022-08-12T20:29:56.042Z,2.85
2022-08-12T20:32:54.029Z,2.90
2022-08-12T20:36:13.734Z,2.80
2022-08-12T20:38:46.119Z,2.72
2022-08-12T20:41:33.343Z,3.15
2022-08-12T20:44:19.553Z,2.75
2022-08-12T20:47:18.422Z,2.63
2022-08-12T20:50:09.302Z,2.63
2022-08-12T20:52:55.351Z,3.83
2022-08-12T20:55:44.307Z,4.88
2022-08-12T20:58:43.027Z,5.72
2022-08-12T21:01:47.105Z,4.32
2022-08-12T21:04:52.713Z,4.13
2022-08-12T21:07:40.739Z,4.72
2022-08-12T21:10:35.839Z,4.18
2022-08-12T21:13:22.974Z,3.70
2022-08-12T21:16:09.858Z,3.78
2022-08-12T21:18:57.420Z,3.80
2022-08-12T21:21:50.155Z,4.22
2022-08-12T21:24:36.149Z,3.45
2022-08-12T21:27:59.146Z,3.80
2022-08-12T21:30:54.869Z,4.15
2022-08-12T21:34:07.831Z,3.58
2022-08-12T21:36:55.163Z,3.22
2022-08-12T21:39:51.897Z,3.30
2022-08-12T21:42:39.990Z,3.25
2022-08-12T21:45:46.917Z,3.55
2022-08-12T21:48:33.205Z,3.67
2022-08-12T21:51:22.961Z,3.03
2022-08-12T21:54:10.210Z,2.97
2022-08-12T21:56:55.870Z,3.22
2022-08-12T21:59:42.847Z,3.30
2022-08-12T22:02:48.531Z,3.30
2022-08-12T22:05:53.024Z,2.97
2022-08-12T22:08:38.656Z,3.10
2022-08-12T22:11:41.022Z,2.60
2022-08-12T22:14:29.213Z,2.78
2022-08-12T22:17:20.239Z,2.83
2022-08-12T22:20:12.700Z,2.92
2022-08-12T22:23:00.288Z,2.67
2022-08-12T22:25:48.456Z,2.70
2022-08-12T22:28:57.159Z,2.85
2022-08-12T22:31:43.557Z,2.88
2022-08-12T22:34:33.341Z,3.30
2022-08-12T22:37:19.921Z,3.10
2022-08-12T22:40:06.970Z,3.00
2022-08-12T22:43:15.565Z,2.83
2022-08-12T22:46:20.680Z,3.42
2022-08-12T22:49:06.678Z,3.10
2022-08-12T22:52:00.932Z,3.20
2022-08-12T22:55:02.703Z,3.50
2022-08-12T22:57:54.773Z,3.03
2022-08-12T23:00:52.812Z,2.90
2022-08-12T23:03:49.037Z,3.63
2022-08-12T23:06:36.342Z,2.83
2022-08-12T23:09:26.366Z,2.80
2022-08-12T23:12:47.258Z,2.90
2022-08-12T23:15:37.132Z,2.85
2022-08-12T23:18:23.672Z,4.30
2022-08-12T23:21:19.384Z,3.45
2022-08-12T23:24:10.926Z,3.30
2022-08-12T23:27:18.178Z,3.80
2022-08-12T23:30:18.515Z,3.90
2022-08-12T23:33:20.166Z,3.70
2022-08-12T23:36:13.205Z,3.60
2022-08-12T23:39:06.644Z,4.00
2022-08-12T23:42:17.371Z,4.28
2022-08-12T23:45:18.975Z,4.00
2022-08-12T23:48:07.363Z,4.60
2022-08-12T23:50:57.966Z,3.80
2022-08-12T23:53:44.078Z,3.47
2022-08-12T23:56:34.907Z,3.35
2022-08-12T23:59:22.883Z,3.65
